sensor_id;sensor_type;location;lat;lon;timestamp;temperature;humidity
12477;DHT22;6303;51.504;6.300;2022-10-18T00:02:11;24.40;72.10
12477;DHT22;6303;51.504;6.300;2022-10-18T00:04:38;24.30;72.20
12477;DHT22;6303;51.504;6.300;2022-10-18T00:07:05;24.40;72.20
12477;DHT22;6303;51.504;6.300;2022-10-18T00:09:32;24.30;72.10
12477;DHT22;6303;51.504;6.300;2022-10-18T00:12:01;24.30;72.20
12477;DHT22;6303;51.504;6.300;2022-10-18T00:14:28;24.30;72.10
12477;DHT22;6303;51.504;6.300;2022-10-18T00:16:55;24.30;72.20
12477;DHT22;6303;51.504;6.300;2022-10-18T00:19:23;24.30;72.20
12477;DHT22;6303;51.504;6.300;2022-10-18T00:21:50;24.30;72.30
12477;DHT22;6303;51.504;6.300;2022-10-18T00:24:17;24.30;72.30
12477;DHT22;6303;51.504;6.300;2022-10-18T00:26:44;24.30;72.30
12477;DHT22;6303;51.504;6.300;2022-10-18T00:29:14;24.30;72.30
12477;DHT22;6303;51.504;6.300;2022-10-18T00:31:42;24.30;72.30
12477;DHT22;6303;51.504;6.300;2022-10-18T00:34:11;24.30;72.30
12477;DHT22;6303;51.504;6.300;2022-10-18T00:36:39;24.30;72.30
12477;DHT22;6303;51.504;6.300;2022-10-18T00:39:07;24.30;72.30
12477;DHT22;6303;51.504;6.300;2022-10-18T00:41:36;24.30;72.70
12477;DHT22;6303;51.504;6.300;2022-10-18T00:44:05;24.30;72.40
12477;DHT22;6303;51.504;6.300;2022-10-18T00:46:35;24.30;72.40
12477;DHT22;6303;51.504;6.300;2022-10-18T00:49:18;24.20;72.40
12477;DHT22;6303;51.504;6.300;2022-10-18T00:51:48;24.30;72.80
12477;DHT22;6303;51.504;6.300;2022-10-18T00:54:16;24.30;73.10
12477;DHT22;6303;51.504;6.300;2022-10-18T00:56:45;24.30;72.90
12477;DHT22;6303;51.504;6.300;2022-10-18T00:59:13;24.30;73.00
12477;DHT22;6303;51.504;6.300;2022-10-18T01:01:42;24.20;73.00
12477;DHT22;6303;51.504;6.300;2022-10-18T01:04:09;24.20;73.00
12477;DHT22;6303;51.504;6.300;2022-10-18T01:06:54;24.20;73.00
12477;DHT22;6303;51.504;6.300;2022-10-18T01:09:27;24.20;73.00
12477;DHT22;6303;51.504;6.300;2022-10-18T01:12:09;24.20;72.90
12477;DHT22;6303;51.504;6.300;2022-10-18T01:14:45;24.20;72.90
12477;DHT22;6303;51.504;6.300;2022-10-18T01:17:19;24.20;72.30
12477;DHT22;6303;51.504;6.300;2022-10-18T01:20:10;24.20;72.90
12477;DHT22;6303;51.504;6.300;2022-10-18T01:22:44;24.20;72.90
12477;DHT22;6303;51.504;6.300;2022-10-18T01:25:28;24.20;72.80
12477;DHT22;6303;51.504;6.300;2022-10-18T01:28:06;24.20;72.90
12477;DHT22;6303;51.504;6.300;2022-10-18T01:30:39;24.20;72.90
12477;DHT22;6303;51.504;6.300;2022-10-18T01:33:15;24.20;72.90
12477;DHT22;6303;51.504;6.300;2022-10-18T01:35:47;24.20;72.80
12477;DHT22;6303;51.504;6.300;2022-10-18T01:38:17;24.20;72.80
12477;DHT22;6303;51.504;6.300;2022-10-18T01:40:46;24.20;72.80
12477;DHT22;6303;51.504;6.300;2022-10-18T01:43:15;24.20;72.80
12477;DHT22;6303;51.504;6.300;2022-10-18T01:45:44;24.20;72.80
12477;DHT22;6303;51.504;6.300;2022-10-18T01:48:13;24.20;72.80
12477;DHT22;6303;51.504;6.300;2022-10-18T01:50:40;24.20;72.80
12477;DHT22;6303;51.504;6.300;2022-10-18T01:53:21;24.20;72.80
12477;DHT22;6303;51.504;6.300;2022-10-18T01:56:00;24.20;72.80
12477;DHT22;6303;51.504;6.300;2022-10-18T01:58:35;24.20;72.80
12477;DHT22;6303;51.504;6.300;2022-10-18T02:01:09;24.20;72.70
12477;DHT22;6303;51.504;6.300;2022-10-18T02:03:41;24.20;72.70
12477;DHT22;6303;51.504;6.300;2022-10-18T02:06:17;24.20;72.80
12477;DHT22;6303;51.504;6.300;2022-10-18T02:08:48;24.20;72.70
12477;DHT22;6303;51.504;6.300;2022-10-18T02:11:16;24.20;72.60
12477;DHT22;6303;51.504;6.300;2022-10-18T02:13:48;24.20;72.60
12477;DHT22;6303;51.504;6.300;2022-10-18T02:16:21;24.20;72.70
12477;DHT22;6303;51.504;6.300;2022-10-18T02:18:53;24.20;72.60
12477;DHT22;6303;51.504;6.300;2022-10-18T02:21:21;24.20;72.60
12477;DHT22;6303;51.504;6.300;2022-10-18T02:23:51;24.20;72.60
12477;DHT22;6303;51.504;6.300;2022-10-18T02:26:18;24.20;72.50
12477;DHT22;6303;51.504;6.300;2022-10-18T02:28:45;24.20;72.50
12477;DHT22;6303;51.504;6.300;2022-10-18T02:31:18;24.20;72.60
12477;DHT22;6303;51.504;6.300;2022-10-18T02:33:52;24.20;72.60
12477;DHT22;6303;51.504;6.300;2022-10-18T02:36:24;24.20;72.50
12477;DHT22;6303;51.504;6.300;2022-10-18T02:38:55;24.20;72.40
12477;DHT22;6303;51.504;6.300;2022-10-18T02:41:23;24.20;72.40
12477;DHT22;6303;51.504;6.300;2022-10-18T02:43:51;24.20;72.50
12477;DHT22;6303;51.504;6.300;2022-10-18T02:46:20;27.20;74.70
12477;DHT22;6303;51.504;6.300;2022-10-18T02:48:47;24.20;72.40
12477;DHT22;6303;51.504;6.300;2022-10-18T02:51:14;22.80;71.60
12477;DHT22;6303;51.504;6.300;2022-10-18T02:53:41;24.20;72.40
12477;DHT22;6303;51.504;6.300;2022-10-18T02:56:08;24.10;72.40
12477;DHT22;6303;51.504;6.300;2022-10-18T02:58:35;24.20;72.40
12477;DHT22;6303;51.504;6.300;2022-10-18T03:01:02;24.20;72.30
12477;DHT22;6303;51.504;6.300;2022-10-18T03:03:31;24.10;72.30
12477;DHT22;6303;51.504;6.300;2022-10-18T03:05:58;24.10;72.40
12477;DHT22;6303;51.504;6.300;2022-10-18T03:08:25;24.10;72.30
12477;DHT22;6303;51.504;6.300;2022-10-18T03:10:52;24.20;72.30
12477;DHT22;6303;51.504;6.300;2022-10-18T03:13:19;24.20;72.30
12477;DHT22;6303;51.504;6.300;2022-10-18T03:15:46;24.10;72.30
12477;DHT22;6303;51.504;6.300;2022-10-18T03:18:13;24.10;72.30
12477;DHT22;6303;51.504;6.300;2022-10-18T03:20:42;24.10;72.10
12477;DHT22;6303;51.504;6.300;2022-10-18T03:23:09;24.20;72.20
12477;DHT22;6303;51.504;6.300;2022-10-18T03:25:36;24.10;72.20
12477;DHT22;6303;51.504;6.300;2022-10-18T03:28:03;24.10;72.30
12477;DHT22;6303;51.504;6.300;2022-10-18T03:30:30;24.10;72.30
12477;DHT22;6303;51.504;6.300;2022-10-18T03:32:57;24.10;72.40
12477;DHT22;6303;51.504;6.300;2022-10-18T03:35:24;24.10;72.30
12477;DHT22;6303;51.504;6.300;2022-10-18T03:37:52;24.10;72.30
12477;DHT22;6303;51.504;6.300;2022-10-18T03:40:19;24.10;72.30
12477;DHT22;6303;51.504;6.300;2022-10-18T03:42:46;24.10;72.30
12477;DHT22;6303;51.504;6.300;2022-10-18T03:45:13;24.10;72.30
12477;DHT22;6303;51.504;6.300;2022-10-18T03:47:40;24.10;72.30
12477;DHT22;6303;51.504;6.300;2022-10-18T03:50:08;24.10;72.40
12477;DHT22;6303;51.504;6.300;2022-10-18T03:52:35;24.10;72.20
12477;DHT22;6303;51.504;6.300;2022-10-18T03:55:04;24.10;72.20
12477;DHT22;6303;51.504;6.300;2022-10-18T03:57:32;24.10;72.30
12477;DHT22;6303;51.504;6.300;2022-10-18T03:59:59;24.10;72.30
12477;DHT22;6303;51.504;6.300;2022-10-18T04:02:26;24.10;72.40
12477;DHT22;6303;51.504;6.300;2022-10-18T04:04:53;24.10;72.40
12477;DHT22;6303;51.504;6.300;2022-10-18T04:07:20;24.10;72.30
12477;DHT22;6303;51.504;6.300;2022-10-18T04:09:47;24.10;72.40
12477;DHT22;6303;51.504;6.300;2022-10-18T04:12:15;24.10;72.30
12477;DHT22;6303;51.504;6.300;2022-10-18T04:14:42;24.10;72.20
12477;DHT22;6303;51.504;6.300;2022-10-18T04:17:09;24.10;72.30
12477;DHT22;6303;51.504;6.300;2022-10-18T04:19:36;24.10;72.30
12477;DHT22;6303;51.504;6.300;2022-10-18T04:22:03;24.10;72.20
12477;DHT22;6303;51.504;6.300;2022-10-18T04:24:30;24.10;72.20
12477;DHT22;6303;51.504;6.300;2022-10-18T04:26:57;24.10;72.30
12477;DHT22;6303;51.504;6.300;2022-10-18T04:29:25;24.10;72.30
12477;DHT22;6303;51.504;6.300;2022-10-18T04:31:52;24.10;72.30
12477;DHT22;6303;51.504;6.300;2022-10-18T04:34:19;24.10;72.40
12477;DHT22;6303;51.504;6.300;2022-10-18T04:36:46;25.20;73.00
12477;DHT22;6303;51.504;6.300;2022-10-18T04:39:13;24.10;72.30
12477;DHT22;6303;51.504;6.300;2022-10-18T04:41:40;24.10;72.30
12477;DHT22;6303;51.504;6.300;2022-10-18T04:44:08;24.10;72.30
12477;DHT22;6303;51.504;6.300;2022-10-18T04:46:36;24.10;72.30
12477;DHT22;6303;51.504;6.300;2022-10-18T04:49:03;24.10;72.30
12477;DHT22;6303;51.504;6.300;2022-10-18T04:51:30;24.10;72.30
12477;DHT22;6303;51.504;6.300;2022-10-18T04:53:57;24.10;72.30
12477;DHT22;6303;51.504;6.300;2022-10-18T04:56:24;24.10;72.30
12477;DHT22;6303;51.504;6.300;2022-10-18T04:58:51;24.10;72.30
12477;DHT22;6303;51.504;6.300;2022-10-18T05:01:18;24.10;72.40
12477;DHT22;6303;51.504;6.300;2022-10-18T05:03:50;24.10;72.60
12477;DHT22;6303;51.504;6.300;2022-10-18T05:06:17;24.10;72.80
12477;DHT22;6303;51.504;6.300;2022-10-18T05:08:44;24.10;72.70
12477;DHT22;6303;51.504;6.300;2022-10-18T05:11:11;24.10;72.90
12477;DHT22;6303;51.504;6.300;2022-10-18T05:13:38;24.10;73.00
12477;DHT22;6303;51.504;6.300;2022-10-18T05:16:06;24.10;73.20
12477;DHT22;6303;51.504;6.300;2022-10-18T05:18:33;24.10;73.10
12477;DHT22;6303;51.504;6.300;2022-10-18T05:21:01;24.10;73.10
12477;DHT22;6303;51.504;6.300;2022-10-18T05:23:28;24.10;73.20
12477;DHT22;6303;51.504;6.300;2022-10-18T05:26:01;27.00;75.30
12477;DHT22;6303;51.504;6.300;2022-10-18T05:28:28;24.10;73.20
12477;DHT22;6303;51.504;6.300;2022-10-18T05:30:57;24.10;73.20
12477;DHT22;6303;51.504;6.300;2022-10-18T05:33:25;24.00;73.10
12477;DHT22;6303;51.504;6.300;2022-10-18T05:35:52;24.00;73.00
12477;DHT22;6303;51.504;6.300;2022-10-18T05:38:21;24.00;73.10
12477;DHT22;6303;51.504;6.300;2022-10-18T05:40:48;24.00;73.10
12477;DHT22;6303;51.504;6.300;2022-10-18T05:43:15;24.00;73.30
12477;DHT22;6303;51.504;6.300;2022-10-18T05:45:47;24.00;73.30
12477;DHT22;6303;51.504;6.300;2022-10-18T05:48:14;24.00;73.30
12477;DHT22;6303;51.504;6.300;2022-10-18T05:50:41;24.00;73.40
12477;DHT22;6303;51.504;6.300;2022-10-18T05:53:09;24.00;73.30
12477;DHT22;6303;51.504;6.300;2022-10-18T05:55:37;24.00;73.40
12477;DHT22;6303;51.504;6.300;2022-10-18T05:58:04;24.00;73.30
12477;DHT22;6303;51.504;6.300;2022-10-18T06:00:31;24.00;73.40
12477;DHT22;6303;51.504;6.300;2022-10-18T06:02:58;24.20;73.50
12477;DHT22;6303;51.504;6.300;2022-10-18T06:05:26;24.00;73.30
12477;DHT22;6303;51.504;6.300;2022-10-18T06:07:53;24.00;73.40
12477;DHT22;6303;51.504;6.300;2022-10-18T06:10:20;24.00;73.40
12477;DHT22;6303;51.504;6.300;2022-10-18T06:12:48;24.00;73.40
12477;DHT22;6303;51.504;6.300;2022-10-18T06:15:15;24.00;73.40
12477;DHT22;6303;51.504;6.300;2022-10-18T06:17:42;24.00;73.30
12477;DHT22;6303;51.504;6.300;2022-10-18T06:20:09;24.00;73.50
12477;DHT22;6303;51.504;6.300;2022-10-18T06:22:36;24.00;73.40
12477;DHT22;6303;51.504;6.300;2022-10-18T06:25:04;24.00;73.80
12477;DHT22;6303;51.504;6.300;2022-10-18T06:27:32;24.00;73.60
12477;DHT22;6303;51.504;6.300;2022-10-18T06:30:01;24.00;73.40
12477;DHT22;6303;51.504;6.300;2022-10-18T06:32:28;24.00;73.40
12477;DHT22;6303;51.504;6.300;2022-10-18T06:34:55;24.00;73.30
12477;DHT22;6303;51.504;6.300;2022-10-18T06:37:22;24.00;73.30
12477;DHT22;6303;51.504;6.300;2022-10-18T06:39:49;24.00;73.30
12477;DHT22;6303;51.504;6.300;2022-10-18T06:42:16;24.00;73.20
12477;DHT22;6303;51.504;6.300;2022-10-18T06:44:43;24.00;73.10
12477;DHT22;6303;51.504;6.300;2022-10-18T06:47:11;24.00;73.40
12477;DHT22;6303;51.504;6.300;2022-10-18T06:49:38;24.10;72.90
12477;DHT22;6303;51.504;6.300;2022-10-18T06:52:05;24.10;72.80
12477;DHT22;6303;51.504;6.300;2022-10-18T06:54:33;24.10;72.90
12477;DHT22;6303;51.504;6.300;2022-10-18T06:57:00;24.10;72.90
12477;DHT22;6303;51.504;6.300;2022-10-18T06:59:28;24.10;72.90
12477;DHT22;6303;51.504;6.300;2022-10-18T07:01:55;24.10;72.90
12477;DHT22;6303;51.504;6.300;2022-10-18T07:04:23;24.10;72.90
12477;DHT22;6303;51.504;6.300;2022-10-18T07:06:53;24.10;72.90
12477;DHT22;6303;51.504;6.300;2022-10-18T07:09:20;24.10;72.90
12477;DHT22;6303;51.504;6.300;2022-10-18T07:11:47;24.10;72.70
12477;DHT22;6303;51.504;6.300;2022-10-18T07:14:14;24.10;72.60
12477;DHT22;6303;51.504;6.300;2022-10-18T07:16:41;24.10;72.40
12477;DHT22;6303;51.504;6.300;2022-10-18T07:19:08;24.20;72.40
12477;DHT22;6303;51.504;6.300;2022-10-18T07:21:37;24.20;72.70
12477;DHT22;6303;51.504;6.300;2022-10-18T07:24:04;24.10;72.80
12477;DHT22;6303;51.504;6.300;2022-10-18T07:26:33;24.10;72.90
12477;DHT22;6303;51.504;6.300;2022-10-18T07:29:03;24.10;73.00
12477;DHT22;6303;51.504;6.300;2022-10-18T07:31:31;24.10;73.10
12477;DHT22;6303;51.504;6.300;2022-10-18T07:33:58;24.10;73.10
12477;DHT22;6303;51.504;6.300;2022-10-18T07:36:26;24.10;73.10
12477;DHT22;6303;51.504;6.300;2022-10-18T07:38:55;24.10;73.20
12477;DHT22;6303;51.504;6.300;2022-10-18T07:41:22;24.10;73.40
12477;DHT22;6303;51.504;6.300;2022-10-18T07:43:50;24.10;73.50
12477;DHT22;6303;51.504;6.300;2022-10-18T07:46:18;24.10;73.60
12477;DHT22;6303;51.504;6.300;2022-10-18T07:48:46;24.10;74.50
12477;DHT22;6303;51.504;6.300;2022-10-18T07:51:13;24.10;73.80
12477;DHT22;6303;51.504;6.300;2022-10-18T07:53:40;24.10;73.80
12477;DHT22;6303;51.504;6.300;2022-10-18T07:56:11;24.10;73.90
12477;DHT22;6303;51.504;6.300;2022-10-18T07:58:41;24.10;73.80
12477;DHT22;6303;51.504;6.300;2022-10-18T08:01:08;24.10;73.70
12477;DHT22;6303;51.504;6.300;2022-10-18T08:03:36;24.10;73.70
12477;DHT22;6303;51.504;6.300;2022-10-18T08:06:05;24.10;73.60
12477;DHT22;6303;51.504;6.300;2022-10-18T08:08:34;24.20;73.50
12477;DHT22;6303;51.504;6.300;2022-10-18T08:11:01;24.10;73.50
12477;DHT22;6303;51.504;6.300;2022-10-18T08:13:30;24.10;74.10
12477;DHT22;6303;51.504;6.300;2022-10-18T08:16:01;24.20;73.40
12477;DHT22;6303;51.504;6.300;2022-10-18T08:18:28;24.20;73.30
12477;DHT22;6303;51.504;6.300;2022-10-18T08:20:57;24.20;73.20
12477;DHT22;6303;51.504;6.300;2022-10-18T08:23:25;24.20;72.90
12477;DHT22;6303;51.504;6.300;2022-10-18T08:25:52;24.20;72.80
12477;DHT22;6303;51.504;6.300;2022-10-18T08:28:19;24.30;72.60
12477;DHT22;6303;51.504;6.300;2022-10-18T08:30:47;24.30;72.30
12477;DHT22;6303;51.504;6.300;2022-10-18T08:33:14;24.40;72.30
12477;DHT22;6303;51.504;6.300;2022-10-18T08:35:41;24.40;72.20
12477;DHT22;6303;51.504;6.300;2022-10-18T08:38:08;24.40;72.00
12477;DHT22;6303;51.504;6.300;2022-10-18T08:40:42;24.40;72.10
12477;DHT22;6303;51.504;6.300;2022-10-18T08:43:15;24.40;71.80
12477;DHT22;6303;51.504;6.300;2022-10-18T08:45:43;24.40;71.70
12477;DHT22;6303;51.504;6.300;2022-10-18T08:48:19;24.40;71.70
12477;DHT22;6303;51.504;6.300;2022-10-18T08:50:48;24.50;71.60
12477;DHT22;6303;51.504;6.300;2022-10-18T08:53:19;24.50;71.50
12477;DHT22;6303;51.504;6.300;2022-10-18T08:55:53;24.50;71.40
12477;DHT22;6303;51.504;6.300;2022-10-18T08:58:21;24.50;71.30
12477;DHT22;6303;51.504;6.300;2022-10-18T09:00:55;24.50;71.40
12477;DHT22;6303;51.504;6.300;2022-10-18T09:03:37;24.50;71.20
12477;DHT22;6303;51.504;6.300;2022-10-18T09:06:15;24.50;71.00
12477;DHT22;6303;51.504;6.300;2022-10-18T09:08:52;24.60;71.10
12477;DHT22;6303;51.504;6.300;2022-10-18T09:11:30;24.50;71.00
12477;DHT22;6303;51.504;6.300;2022-10-18T09:17:07;24.50;71.20
12477;DHT22;6303;51.504;6.300;2022-10-18T09:19:49;24.50;71.20
12477;DHT22;6303;51.504;6.300;2022-10-18T09:22:26;24.50;71.20
12477;DHT22;6303;51.504;6.300;2022-10-18T09:25:04;24.50;71.30
12477;DHT22;6303;51.504;6.300;2022-10-18T09:27:36;24.50;71.30
12477;DHT22;6303;51.504;6.300;2022-10-18T09:30:12;24.40;71.30
12477;DHT22;6303;51.504;6.300;2022-10-18T09:32:45;24.40;71.30
12477;DHT22;6303;51.504;6.300;2022-10-18T09:35:18;24.40;71.20
12477;DHT22;6303;51.504;6.300;2022-10-18T09:37:47;24.40;71.20
12477;DHT22;6303;51.504;6.300;2022-10-18T09:40:17;24.50;71.20
12477;DHT22;6303;51.504;6.300;2022-10-18T09:42:52;24.40;71.10
12477;DHT22;6303;51.504;6.300;2022-10-18T09:45:25;24.40;71.10
12477;DHT22;6303;51.504;6.300;2022-10-18T09:48:00;24.50;71.10
12477;DHT22;6303;51.504;6.300;2022-10-18T09:50:35;24.50;71.00
12477;DHT22;6303;51.504;6.300;2022-10-18T09:53:11;24.50;70.90
12477;DHT22;6303;51.504;6.300;2022-10-18T09:55:50;24.50;70.80
12477;DHT22;6303;51.504;6.300;2022-10-18T09:58:22;24.50;70.70
12477;DHT22;6303;51.504;6.300;2022-10-18T10:00:50;24.60;70.40
12477;DHT22;6303;51.504;6.300;2022-10-18T10:03:18;24.60;70.10
12477;DHT22;6303;51.504;6.300;2022-10-18T10:06:01;24.70;70.00
12477;DHT22;6303;51.504;6.300;2022-10-18T10:08:32;24.70;69.90
12477;DHT22;6303;51.504;6.300;2022-10-18T10:10:59;24.70;69.90
12477;DHT22;6303;51.504;6.300;2022-10-18T10:13:27;24.70;69.80
12477;DHT22;6303;51.504;6.300;2022-10-18T10:15:56;24.70;69.80
12477;DHT22;6303;51.504;6.300;2022-10-18T10:18:25;24.70;69.80
12477;DHT22;6303;51.504;6.300;2022-10-18T10:20:58;24.60;69.70
12477;DHT22;6303;51.504;6.300;2022-10-18T10:23:27;24.80;69.50
12477;DHT22;6303;51.504;6.300;2022-10-18T10:25:57;26.40;70.00
12477;DHT22;6303;51.504;6.300;2022-10-18T10:28:29;25.10;68.20
12477;DHT22;6303;51.504;6.300;2022-10-18T10:31:16;25.20;67.70
12477;DHT22;6303;51.504;6.300;2022-10-18T10:33:44;25.20;67.10
12477;DHT22;6303;51.504;6.300;2022-10-18T10:36:18;25.30;66.90
12477;DHT22;6303;51.504;6.300;2022-10-18T10:39:01;25.40;66.50
12477;DHT22;6303;51.504;6.300;2022-10-18T10:41:30;25.50;66.10
12477;DHT22;6303;51.504;6.300;2022-10-18T10:43:57;25.60;65.80
12477;DHT22;6303;51.504;6.300;2022-10-18T10:46:32;25.50;65.60
12477;DHT22;6303;51.504;6.300;2022-10-18T10:49:00;25.50;65.80
12477;DHT22;6303;51.504;6.300;2022-10-18T10:51:31;25.50;65.70
12477;DHT22;6303;51.504;6.300;2022-10-18T10:54:00;25.40;65.70
12477;DHT22;6303;51.504;6.300;2022-10-18T10:56:30;25.50;65.90
12477;DHT22;6303;51.504;6.300;2022-10-18T10:59:05;25.50;65.80
12477;DHT22;6303;51.504;6.300;2022-10-18T11:01:32;25.60;65.60
12477;DHT22;6303;51.504;6.300;2022-10-18T11:04:02;25.70;65.10
12477;DHT22;6303;51.504;6.300;2022-10-18T11:06:55;27.20;65.90
12477;DHT22;6303;51.504;6.300;2022-10-18T11:09:47;25.90;64.50
12477;DHT22;6303;51.504;6.300;2022-10-18T11:12:27;26.00;64.10
12477;DHT22;6303;51.504;6.300;2022-10-18T11:15:05;26.00;63.90
12477;DHT22;6303;51.504;6.300;2022-10-18T11:17:40;26.00;63.80
12477;DHT22;6303;51.504;6.300;2022-10-18T11:20:14;26.00;63.70
12477;DHT22;6303;51.504;6.300;2022-10-18T11:22:49;26.00;63.80
12477;DHT22;6303;51.504;6.300;2022-10-18T11:25:25;25.90;64.00
12477;DHT22;6303;51.504;6.300;2022-10-18T11:27:59;26.00;63.90
12477;DHT22;6303;51.504;6.300;2022-10-18T11:30:43;26.00;63.80
12477;DHT22;6303;51.504;6.300;2022-10-18T11:33:21;26.10;63.50
12477;DHT22;6303;51.504;6.300;2022-10-18T11:35:53;26.20;63.30
12477;DHT22;6303;51.504;6.300;2022-10-18T11:38:30;26.20;63.10
12477;DHT22;6303;51.504;6.300;2022-10-18T11:41:18;26.30;63.00
12477;DHT22;6303;51.504;6.300;2022-10-18T11:43:52;26.30;62.80
12477;DHT22;6303;51.504;6.300;2022-10-18T11:46:29;26.30;62.60
12477;DHT22;6303;51.504;6.300;2022-10-18T11:49:10;26.40;62.50
12477;DHT22;6303;51.504;6.300;2022-10-18T11:51:51;26.30;62.50
12477;DHT22;6303;51.504;6.300;2022-10-18T11:54:51;26.30;62.50
12477;DHT22;6303;51.504;6.300;2022-10-18T11:57:39;26.30;62.40
12477;DHT22;6303;51.504;6.300;2022-10-18T12:00:21;23.30;60.20
12477;DHT22;6303;51.504;6.300;2022-10-18T12:03:06;26.40;63.00
12477;DHT22;6303;51.504;6.300;2022-10-18T12:05:37;26.40;62.20
12477;DHT22;6303;51.504;6.300;2022-10-18T12:08:08;25.90;61.90
12477;DHT22;6303;51.504;6.300;2022-10-18T12:10:40;26.40;61.30
12477;DHT22;6303;51.504;6.300;2022-10-18T12:13:16;26.40;62.00
12477;DHT22;6303;51.504;6.300;2022-10-18T12:15:44;26.40;61.80
12477;DHT22;6303;51.504;6.300;2022-10-18T12:18:14;26.40;62.00
12477;DHT22;6303;51.504;6.300;2022-10-18T12:20:45;26.30;62.20
12477;DHT22;6303;51.504;6.300;2022-10-18T12:23:15;26.30;62.40
12477;DHT22;6303;51.504;6.300;2022-10-18T12:25:46;26.30;62.40
12477;DHT22;6303;51.504;6.300;2022-10-18T12:28:32;26.40;62.40
12477;DHT22;6303;51.504;6.300;2022-10-18T12:31:06;26.40;62.20
12477;DHT22;6303;51.504;6.300;2022-10-18T12:33:39;26.40;62.20
12477;DHT22;6303;51.504;6.300;2022-10-18T12:36:21;26.40;62.00
12477;DHT22;6303;51.504;6.300;2022-10-18T12:38:53;26.40;61.90
12477;DHT22;6303;51.504;6.300;2022-10-18T12:41:26;26.40;62.00
12477;DHT22;6303;51.504;6.300;2022-10-18T12:43:57;26.30;62.20
12477;DHT22;6303;51.504;6.300;2022-10-18T12:46:42;26.20;62.30
12477;DHT22;6303;51.504;6.300;2022-10-18T12:49:11;26.20;62.50
12477;DHT22;6303;51.504;6.300;2022-10-18T12:51:49;26.20;62.60
12477;DHT22;6303;51.504;6.300;2022-10-18T12:54:20;26.20;62.50
12477;DHT22;6303;51.504;6.300;2022-10-18T12:56:50;26.20;62.60
12477;DHT22;6303;51.504;6.300;2022-10-18T12:59:50;26.20;62.60
12477;DHT22;6303;51.504;6.300;2022-10-18T13:02:27;26.20;62.70
12477;DHT22;6303;51.504;6.300;2022-10-18T13:04:55;26.10;62.70
12477;DHT22;6303;51.504;6.300;2022-10-18T13:07:37;26.10;62.80
12477;DHT22;6303;51.504;6.300;2022-10-18T13:10:37;26.10;62.90
12477;DHT22;6303;51.504;6.300;2022-10-18T13:16:12;26.00;62.90
12477;DHT22;6303;51.504;6.300;2022-10-18T13:18:51;26.00;63.00
12477;DHT22;6303;51.504;6.300;2022-10-18T13:21:26;26.00;63.80
12477;DHT22;6303;51.504;6.300;2022-10-18T13:24:20;25.90;63.00
12477;DHT22;6303;51.504;6.300;2022-10-18T13:26:58;25.90;63.00
12477;DHT22;6303;51.504;6.300;2022-10-18T13:29:47;25.90;63.20
12477;DHT22;6303;51.504;6.300;2022-10-18T13:32:24;25.80;63.20
12477;DHT22;6303;51.504;6.300;2022-10-18T13:34:54;25.80;63.30
12477;DHT22;6303;51.504;6.300;2022-10-18T13:37:23;25.80;63.40
12477;DHT22;6303;51.504;6.300;2022-10-18T13:39:51;25.70;63.40
12477;DHT22;6303;51.504;6.300;2022-10-18T13:42:38;25.70;63.50
12477;DHT22;6303;51.504;6.300;2022-10-18T13:48:45;25.70;63.60
12477;DHT22;6303;51.504;6.300;2022-10-18T13:51:35;25.60;63.60
12477;DHT22;6303;51.504;6.300;2022-10-18T13:54:13;25.60;63.60
12477;DHT22;6303;51.504;6.300;2022-10-18T13:57:03;25.60;63.70
12477;DHT22;6303;51.504;6.300;2022-10-18T13:59:49;25.60;63.60
12477;DHT22;6303;51.504;6.300;2022-10-18T14:02:47;25.60;63.50
12477;DHT22;6303;51.504;6.300;2022-10-18T14:05:27;25.60;63.50
12477;DHT22;6303;51.504;6.300;2022-10-18T14:08:02;25.60;63.50
12477;DHT22;6303;51.504;6.300;2022-10-18T14:10:37;25.60;63.30
12477;DHT22;6303;51.504;6.300;2022-10-18T14:13:06;25.60;63.40
12477;DHT22;6303;51.504;6.300;2022-10-18T14:15:42;25.60;63.30
12477;DHT22;6303;51.504;6.300;2022-10-18T14:18:14;25.50;63.20
12477;DHT22;6303;51.504;6.300;2022-10-18T14:20:46;25.50;63.10
12477;DHT22;6303;51.504;6.300;2022-10-18T14:23:18;25.50;63.10
12477;DHT22;6303;51.504;6.300;2022-10-18T14:25:46;25.50;63.10
12477;DHT22;6303;51.504;6.300;2022-10-18T14:28:15;25.50;63.20
12477;DHT22;6303;51.504;6.300;2022-10-18T14:30:53;25.50;63.20
12477;DHT22;6303;51.504;6.300;2022-10-18T14:33:30;25.40;63.30
12477;DHT22;6303;51.504;6.300;2022-10-18T14:36:03;25.40;62.60
12477;DHT22;6303;51.504;6.300;2022-10-18T14:38:31;25.40;63.20
12477;DHT22;6303;51.504;6.300;2022-10-18T14:41:13;25.40;63.20
12477;DHT22;6303;51.504;6.300;2022-10-18T14:43:41;25.40;63.20
12477;DHT22;6303;51.504;6.300;2022-10-18T14:46:10;25.40;63.20
12477;DHT22;6303;51.504;6.300;2022-10-18T14:48:41;25.40;63.10
12477;DHT22;6303;51.504;6.300;2022-10-18T14:51:10;25.30;62.90
12477;DHT22;6303;51.504;6.300;2022-10-18T14:53:39;25.30;62.80
12477;DHT22;6303;51.504;6.300;2022-10-18T14:56:07;25.40;62.80
12477;DHT22;6303;51.504;6.300;2022-10-18T14:58:43;25.30;62.70
12477;DHT22;6303;51.504;6.300;2022-10-18T15:01:15;25.30;62.40
12477;DHT22;6303;51.504;6.300;2022-10-18T15:03:43;25.40;62.40
12477;DHT22;6303;51.504;6.300;2022-10-18T15:06:16;25.40;62.40
12477;DHT22;6303;51.504;6.300;2022-10-18T15:08:46;25.40;62.20
12477;DHT22;6303;51.504;6.300;2022-10-18T15:11:15;25.40;62.00
12477;DHT22;6303;51.504;6.300;2022-10-18T15:13:47;25.40;62.00
12477;DHT22;6303;51.504;6.300;2022-10-18T15:16:16;25.40;62.10
12477;DHT22;6303;51.504;6.300;2022-10-18T15:18:56;25.40;62.10
12477;DHT22;6303;51.504;6.300;2022-10-18T15:21:26;25.40;62.10
12477;DHT22;6303;51.504;6.300;2022-10-18T15:23:54;25.40;62.00
12477;DHT22;6303;51.504;6.300;2022-10-18T15:26:24;25.40;62.10
12477;DHT22;6303;51.504;6.300;2022-10-18T15:28:52;25.40;61.40
12477;DHT22;6303;51.504;6.300;2022-10-18T15:31:25;25.40;61.90
12477;DHT22;6303;51.504;6.300;2022-10-18T15:33:53;25.40;61.90
12477;DHT22;6303;51.504;6.300;2022-10-18T15:36:33;25.40;61.70
12477;DHT22;6303;51.504;6.300;2022-10-18T15:39:06;25.40;61.10
12477;DHT22;6303;51.504;6.300;2022-10-18T15:41:38;25.40;61.80
12477;DHT22;6303;51.504;6.300;2022-10-18T15:44:07;25.40;61.90
12477;DHT22;6303;51.504;6.300;2022-10-18T15:46:37;25.40;61.90
12477;DHT22;6303;51.504;6.300;2022-10-18T15:52:37;25.40;62.20
12477;DHT22;6303;51.504;6.300;2022-10-18T15:58:22;25.40;62.30
12477;DHT22;6303;51.504;6.300;2022-10-18T16:00:51;25.40;62.20
12477;DHT22;6303;51.504;6.300;2022-10-18T16:03:19;25.40;62.20
12477;DHT22;6303;51.504;6.300;2022-10-18T16:05:58;25.40;62.10
12477;DHT22;6303;51.504;6.300;2022-10-18T16:08:28;25.30;62.00
12477;DHT22;6303;51.504;6.300;2022-10-18T16:10:57;25.30;61.90
12477;DHT22;6303;51.504;6.300;2022-10-18T16:13:25;25.30;62.10
12477;DHT22;6303;51.504;6.300;2022-10-18T16:15:52;25.30;61.80
12477;DHT22;6303;51.504;6.300;2022-10-18T16:18:21;25.30;61.60
12477;DHT22;6303;51.504;6.300;2022-10-18T16:20:49;25.30;61.50
12477;DHT22;6303;51.504;6.300;2022-10-18T16:23:19;25.30;61.50
12477;DHT22;6303;51.504;6.300;2022-10-18T16:25:48;25.30;61.50
12477;DHT22;6303;51.504;6.300;2022-10-18T16:28:17;25.30;61.50